Time;durP1;ratioP1;P1;durP2;ratioP2;P2;SDS_P1;SDS_P2;PMS_P1;PMS_P2;Temp;Humidity;BMP_temperature;BMP_pressure;BME280_temperature;BME280_humidity;BME280_pressure;Samples;Min_cycle;Max_cycle;Signal;HPM_P1;HPM_P2
2022/07/05 00:00:04;;;;;;;18.70;10.20;;;;;;;13.09;100.00;100357.41;5039941;28;20127;-59
2022/07/05 00:02:35;;;;;;;19.92;9.48;;;;;;;13.10;100.00;100356.50;5039284;28;20061;-59
2022/07/05 00:05:06;;;;;;;17.85;10.27;;;;;;;13.12;100.00;100352.06;5030652;28;20218;-59
2022/07/05 00:07:47;;;;;;;15.75;9.85;;;;;;;13.14;100.00;100363.41;5038174;28;20113;-58
2022/07/05 00:10:18;;;;;;;15.95;10.82;;;;;;;13.15;100.00;100367.72;5038941;28;20067;-59
2022/07/05 00:13:10;;;;;;;20.70;10.90;;;;;;;13.18;100.00;100365.06;5035464;28;20069;-60
2022/07/05 00:15:59;;;;;;;16.60;10.05;;;;;;;13.16;100.00;100369.47;5039598;28;20107;-59
2022/07/05 00:18:46;;;;;;;15.90;10.90;;;;;;;13.12;100.00;100365.19;5039744;28;20318;-60
2022/07/05 00:21:18;;;;;;;22.48;11.02;;;;;;;13.18;100.00;100375.56;5033109;28;20057;-59
2022/07/05 00:23:52;;;;;;;15.60;9.35;;;;;;;13.22;100.00;100371.94;5032169;28;20442;-59
2022/07/05 00:26:28;;;;;;;14.95;9.25;;;;;;;13.19;100.00;100364.16;5032243;28;20046;-57
2022/07/05 00:29:30;;;;;;;18.92;9.68;;;;;;;13.26;100.00;100363.09;5039300;28;20072;-58
2022/07/05 00:32:17;;;;;;;15.10;9.20;;;;;;;13.30;100.00;100364.75;5039195;28;20053;-58
2022/07/05 00:35:01;;;;;;;16.30;8.32;;;;;;;13.43;100.00;100348.69;5034903;28;20122;-58
2022/07/05 00:37:51;;;;;;;13.73;8.77;;;;;;;13.51;100.00;100341.47;5039309;28;20054;-57
2022/07/05 00:40:52;;;;;;;15.23;8.17;;;;;;;13.64;100.00;100363.88;5039755;28;20057;-60
2022/07/05 00:43:36;;;;;;;11.20;7.35;;;;;;;13.67;100.00;100363.78;5025126;28;20342;-57
2022/07/05 00:46:40;;;;;;;11.67;7.60;;;;;;;13.75;100.00;100367.06;5025508;28;20045;-57
2022/07/05 00:49:17;;;;;;;14.02;8.13;;;;;;;13.84;100.00;100359.81;4954419;28;20337;-59
2022/07/05 00:51:49;;;;;;;10.90;7.63;;;;;;;13.87;99.24;100351.84;4972199;28;87099;-58
2022/07/05 00:54:42;;;;;;;14.90;7.70;;;;;;;13.72;97.88;100330.38;5046875;28;20146;-57
2022/07/05 00:57:13;;;;;;;13.85;7.40;;;;;;;13.95;98.38;100368.25;5064183;28;20341;-58
2022/07/05 01:00:34;;;;;;;11.43;7.33;;;;;;;14.07;98.08;100360.00;5064225;28;20072;-57
2022/07/05 01:03:57;;;;;;;10.35;7.47;;;;;;;14.07;97.02;100364.41;5063554;28;20493;-59
2022/07/05 01:07:05;;;;;;;10.43;7.03;;;;;;;14.10;96.78;100367.78;4974616;28;20561;-59
2022/07/05 01:09:49;;;;;;;9.67;6.50;;;;;;;14.16;96.73;100362.38;5052500;28;20283;-60
2022/07/05 01:12:34;;;;;;;12.83;7.93;;;;;;;14.13;95.96;100357.22;5064909;28;20288;-60
2022/07/05 01:15:05;;;;;;;10.77;7.23;;;;;;;14.17;96.18;100358.84;5065001;28;20298;-59
2022/07/05 01:17:37;;;;;;;9.00;7.03;;;;;;;14.18;96.09;100350.06;5064829;28;20292;-60
2022/07/05 01:20:21;;;;;;;10.90;6.80;;;;;;;14.29;94.61;100372.53;5063707;28;20283;-59
2022/07/05 01:22:55;;;;;;;10.63;6.70;;;;;;;14.33;94.75;100353.16;5064864;28;20490;-60
2022/07/05 01:25:56;;;;;;;9.53;7.10;;;;;;;14.42;95.29;100347.59;5064633;28;20310;-60
2022/07/05 01:29:08;;;;;;;12.07;6.93;;;;;;;14.65;94.53;100345.16;4935308;29;20280;-59
2022/07/05 01:31:41;;;;;;;11.77;7.03;;;;;;;14.76;94.76;100349.19;4927514;29;20569;-59
2022/07/05 01:34:12;;;;;;;9.50;6.60;;;;;;;14.79;93.30;100335.94;4929667;29;20307;-59
2022/07/05 01:37:20;;;;;;;10.20;6.90;;;;;;;14.96;93.53;100338.88;4962082;28;20305;-60
2022/07/05 01:40:11;;;;;;;10.30;7.15;;;;;;;15.13;92.61;100334.84;4993607;28;20286;-59
2022/07/05 01:43:17;;;;;;;10.10;7.00;;;;;;;15.40;91.82;100328.59;4991535;28;20447;-59
2022/07/05 01:46:02;;;;;;;14.15;8.15;;;;;;;15.65;91.09;100327.69;4993567;28;20297;-59
2022/07/05 01:48:35;;;;;;;12.23;7.50;;;;;;;15.77;90.05;100332.56;4991515;28;20054;-60
2022/07/05 01:51:27;;;;;;;9.40;7.37;;;;;;;15.88;88.57;100324.28;4994028;28;20291;-59
2022/07/05 01:54:30;;;;;;;12.37;7.57;;;;;;;16.01;89.06;100327.31;4993780;28;20051;-58
2022/07/05 01:57:03;;;;;;;12.30;7.10;;;;;;;16.19;88.79;100323.97;4954590;29;20306;-60
2022/07/05 01:59:35;;;;;;;10.27;6.60;;;;;;;16.16;87.12;100260.81;4963671;28;20293;-59
2022/07/05 02:02:07;;;;;;;11.03;6.93;;;;;;;16.65;85.84;100323.91;5018185;28;20635;-60
2022/07/05 02:04:55;;;;;;;11.17;6.83;;;;;;;17.00;86.32;100319.88;5046657;28;20296;-59
2022/07/05 02:07:53;;;;;;;9.93;7.10;;;;;;;17.23;82.37;100332.94;5046688;28;20507;-60
2022/07/05 02:10:41;;;;;;;12.13;7.17;;;;;;;17.24;83.24;100333.81;4968326;28;20062;-60
2022/07/05 02:13:31;;;;;;;11.33;6.93;;;;;;;17.34;82.30;100318.41;4968089;28;20311;-59
2022/07/05 02:16:23;;;;;;;12.80;8.03;;;;;;;17.28;83.01;100323.97;5006632;28;20315;-60
2022/07/05 02:18:54;;;;;;;12.83;7.90;;;;;;;17.29;82.37;100323.03;5006677;28;20282;-61
2022/07/05 02:22:01;;;;;;;8.80;6.83;;;;;;;17.30;82.52;100330.03;5006398;28;20291;-59
2022/07/05 02:24:32;;;;;;;12.40;6.80;;;;;;;17.23;82.67;100319.75;4967478;28;21024;-59
2022/07/05 02:27:03;;;;;;;10.63;6.83;;;;;;;17.34;83.22;100315.78;5040067;28;20291;-59
2022/07/05 02:29:35;;;;;;;14.23;6.17;;;;;;;17.50;83.36;100316.84;5067768;28;20421;-59
2022/07/05 02:32:07;;;;;;;8.63;6.27;;;;;;;17.53;80.88;100316.69;5066805;28;20370;-59
2022/07/05 02:34:38;;;;;;;11.10;6.70;;;;;;;17.37;81.69;100310.34;5068212;28;20310;-59
2022/07/05 02:37:08;;;;;;;10.17;6.23;;;;;;;17.50;81.84;100311.56;5067972;28;20568;-61
2022/07/05 02:39:39;;;;;;;12.27;6.30;;;;;;;17.49;80.81;100308.97;5067791;28;20288;-60
2022/07/05 02:42:09;;;;;;;9.27;6.27;;;;;;;17.50;80.91;100303.63;5067646;28;20289;-59
2022/07/05 02:44:42;;;;;;;10.03;5.70;;;;;;;17.76;82.43;100306.88;5065631;28;20311;-60
2022/07/05 02:47:13;;;;;;;8.50;6.20;;;;;;;17.92;80.99;100307.91;5065912;28;20641;-60
2022/07/05 02:49:43;;;;;;;11.27;6.53;;;;;;;18.06;81.67;100305.50;5067793;28;20287;-58
2022/07/05 02:52:14;;;;;;;9.47;5.93;;;;;;;17.96;79.86;100304.19;5067629;28;20290;-59
2022/07/05 02:54:45;;;;;;;7.80;5.07;;;;;;;17.99;80.96;100304.06;5067541;28;20346;-60
2022/07/05 02:57:16;;;;;;;7.10;5.37;;;;;;;18.02;80.48;100303.94;5067737;28;20302;-59
2022/07/05 02:59:48;;;;;;;10.57;5.07;;;;;;;18.14;78.54;100299.00;5067383;28;20295;-59
2022/07/05 03:02:19;;;;;;;6.67;5.47;;;;;;;18.18;79.88;100303.22;5066567;28;20287;-59
2022/07/05 03:04:49;;;;;;;10.93;5.53;;;;;;;18.09;78.94;100263.03;5066680;28;20461;-59
2022/07/05 03:07:20;;;;;;;7.57;5.30;;;;;;;18.23;80.10;100290.63;5067576;28;20285;-58
2022/07/05 03:09:51;;;;;;;8.17;5.63;;;;;;;18.37;80.28;100293.47;5066262;28;20354;-59
2022/07/05 03:12:21;;;;;;;8.90;4.67;;;;;;;18.52;79.70;100287.44;5064332;28;20287;-58
2022/07/05 03:14:53;;;;;;;7.27;5.60;;;;;;;18.53;79.17;100286.50;5067034;28;20286;-59
2022/07/05 03:17:24;;;;;;;6.53;4.93;;;;;;;18.60;78.03;100283.56;5067237;28;20291;-60
2022/07/05 03:19:54;;;;;;;9.63;4.57;;;;;;;18.58;77.89;100286.28;5067355;28;20279;-59
2022/07/05 03:22:25;;;;;;;6.67;4.73;;;;;;;18.62;77.58;100281.66;5067422;28;20290;-59
2022/07/05 03:24:56;;;;;;;7.73;4.83;;;;;;;18.63;78.15;100278.13;5067355;28;20303;-59
2022/07/05 03:27:27;;;;;;;6.30;4.60;;;;;;;18.64;78.61;100269.22;5067485;28;20644;-58
2022/07/05 03:29:59;;;;;;;5.40;4.67;;;;;;;18.65;77.10;100276.25;5066306;28;20271;-59
2022/07/05 03:32:30;;;;;;;7.77;5.33;;;;;;;18.80;76.62;100274.66;5066894;28;20522;-59
2022/07/05 03:35:01;;;;;;;8.13;5.00;;;;;;;18.95;77.79;100272.09;5066681;28;20289;-59
2022/07/05 03:37:31;;;;;;;6.50;4.97;;;;;;;19.18;77.66;100276.19;5065768;28;20387;-59
2022/07/05 03:40:02;;;;;;;7.47;5.27;;;;;;;18.96;77.20;100276.44;5065768;28;20324;-59
2022/07/05 03:42:35;;;;;;;11.57;5.20;;;;;;;18.96;76.79;100273.78;5066594;28;20355;-58
2022/07/05 03:45:08;;;;;;;7.10;4.60;;;;;;;19.03;76.19;100269.03;5066284;28;20322;-58
2022/07/05 03:47:39;;;;;;;10.43;4.90;;;;;;;19.12;76.34;100275.63;5066496;28;20271;-59
2022/07/05 03:50:10;;;;;;;11.27;5.50;;;;;;;18.82;78.12;100239.22;5066629;28;20275;-59
2022/07/05 03:52:40;;;;;;;6.60;5.17;;;;;;;18.90;76.35;100271.47;5066232;28;20509;-59
2022/07/05 03:55:11;;;;;;;7.77;5.57;;;;;;;19.02;77.54;100261.16;5066365;28;20279;-59
2022/07/05 03:57:42;;;;;;;9.40;5.60;;;;;;;19.09;77.69;100259.91;5066294;28;20275;-59
2022/07/05 04:00:15;;;;;;;9.77;5.93;;;;;;;19.16;78.60;100256.03;5065885;28;20283;-60
2022/07/05 04:02:46;;;;;;;8.43;5.73;;;;;;;19.40;78.30;100254.72;5066333;28;20471;-58
2022/07/05 04:05:16;;;;;;;6.50;5.17;;;;;;;19.41;77.42;100250.28;5066095;28;20299;-58
2022/07/05 04:07:51;;;;;;;8.93;6.00;;;;;;;19.18;77.36;100222.38;5066211;28;20288;-59
2022/07/05 04:10:22;;;;;;;8.07;5.07;;;;;;;19.46;77.49;100237.66;5065980;28;20571;-59
2022/07/05 04:12:52;;;;;;;12.23;4.97;;;;;;;19.61;75.41;100251.88;5065470;28;20290;-59
2022/07/05 04:15:24;;;;;;;9.97;5.60;;;;;;;19.68;76.06;100237.38;5065873;28;20405;-59
2022/07/05 04:17:56;;;;;;;7.73;4.87;;;;;;;19.72;76.14;100232.75;5066134;28;20560;-59
2022/07/05 04:20:27;;;;;;;6.40;5.00;;;;;;;19.89;76.76;100231.81;5066135;28;20278;-58
2022/07/05 04:22:57;;;;;;;6.17;5.10;;;;;;;19.85;76.10;100230.31;5065717;28;20383;-58
2022/07/05 04:25:28;;;;;;;8.93;5.60;;;;;;;19.86;77.07;100229.34;5066306;28;20321;-58
2022/07/05 04:27:59;;;;;;;7.37;4.90;;;;;;;19.87;75.99;100231.94;5066026;28;20284;-58
2022/07/05 04:30:31;;;;;;;6.30;4.97;;;;;;;20.00;78.32;100237.41;5065865;28;20276;-58
2022/07/05 04:33:01;;;;;;;8.67;5.63;;;;;;;19.99;76.25;100235.66;5065447;28;20305;-58
2022/07/05 04:35:32;;;;;;;6.17;5.00;;;;;;;20.13;77.25;100240.22;5065626;28;20287;-58
2022/07/05 04:38:03;;;;;;;8.20;5.40;;;;;;;20.19;76.38;100243.38;5065530;28;20279;-59
2022/07/05 04:40:33;;;;;;;7.63;5.63;;;;;;;20.06;73.59;100230.88;5065790;28;20286;-58
2022/07/05 04:43:04;;;;;;;7.27;5.00;;;;;;;20.08;77.00;100240.47;5064835;28;20417;-59
2022/07/05 04:45:36;;;;;;;7.77;5.13;;;;;;;20.13;75.64;100243.72;5065757;28;20311;-58
2022/07/05 04:48:07;;;;;;;7.63;5.10;;;;;;;20.33;77.57;100249.69;5065779;28;20343;-58
2022/07/05 04:50:38;;;;;;;6.10;5.50;;;;;;;20.44;75.93;100249.91;5065387;28;20271;-58
2022/07/05 04:53:09;;;;;;;6.70;4.97;;;;;;;20.41;73.63;100248.28;5064990;28;20977;-59
2022/07/05 04:55:40;;;;;;;7.90;4.77;;;;;;;20.37;73.66;100240.63;5064021;28;20291;-58
2022/07/05 04:58:11;;;;;;;6.47;5.47;;;;;;;20.32;75.16;100247.97;5064011;28;20307;-58
2022/07/05 05:00:43;;;;;;;7.87;4.77;;;;;;;20.43;74.90;100245.56;5064321;28;20915;-58
2022/07/05 05:03:16;;;;;;;12.40;5.20;;;;;;;20.50;75.42;100246.94;5063730;28;20961;-59
2022/07/05 05:05:47;;;;;;;9.27;5.13;;;;;;;20.58;74.70;100239.41;5063737;28;20303;-59
2022/07/05 05:08:17;;;;;;;7.53;5.00;;;;;;;20.57;73.55;100240.34;5064246;28;20767;-58
2022/07/05 05:10:48;;;;;;;11.10;4.87;;;;;;;20.53;74.44;100236.13;5064413;28;20289;-58
2022/07/05 05:13:18;;;;;;;9.57;5.07;;;;;;;20.58;75.22;100233.25;5064476;28;20322;-58
2022/07/05 05:15:50;;;;;;;8.50;4.93;;;;;;;20.66;75.07;100242.44;5064699;28;20301;-58
2022/07/05 05:18:25;;;;;;;7.33;4.90;;;;;;;20.77;75.11;100243.66;5065041;28;20287;-58
2022/07/05 05:20:56;;;;;;;7.87;5.07;;;;;;;20.74;73.29;100249.13;5065442;28;20279;-58
2022/07/05 05:23:27;;;;;;;7.67;5.03;;;;;;;20.61;74.21;100244.53;5065127;28;20302;-58
2022/07/05 05:25:57;;;;;;;8.37;4.93;;;;;;;20.58;73.40;100239.41;5065441;28;20313;-58
2022/07/05 05:28:28;;;;;;;7.63;4.40;;;;;;;20.55;74.35;100244.91;5065447;28;20560;-59
2022/07/05 05:31:00;;;;;;;9.40;5.20;;;;;;;20.57;73.67;100236.84;5065123;28;20271;-59
2022/07/05 05:33:31;;;;;;;8.13;5.37;;;;;;;20.59;74.22;100241.13;5065084;28;20284;-58
2022/07/05 05:36:02;;;;;;;11.50;5.13;;;;;;;20.63;74.13;100236.47;5067268;28;20298;-60
2022/07/05 05:38:33;;;;;;;8.47;4.63;;;;;;;20.71;72.51;100238.69;5069096;28;20314;-59
2022/07/05 05:41:04;;;;;;;7.83;5.10;;;;;;;20.67;73.52;100233.56;5068656;28;20289;-58
2022/07/05 05:43:34;;;;;;;11.93;5.20;;;;;;;20.78;73.82;100224.09;5068937;28;20275;-59
2022/07/05 05:46:07;;;;;;;10.87;5.53;;;;;;;20.82;73.85;100223.00;5068987;28;20534;-59
2022/07/05 05:48:38;;;;;;;9.43;5.07;;;;;;;20.83;73.10;100230.84;5068997;28;20311;-59
2022/07/05 05:51:08;;;;;;;12.77;5.40;;;;;;;20.65;73.21;100224.81;5068811;28;20364;-59
2022/07/05 05:53:39;;;;;;;9.13;5.30;;;;;;;20.65;73.78;100224.81;5068870;28;20279;-58
2022/07/05 05:56:10;;;;;;;8.50;4.97;;;;;;;20.63;72.51;100228.50;5068991;28;20279;-59
2022/07/05 05:58:40;;;;;;;16.27;5.03;;;;;;;20.62;73.58;100232.97;5068705;28;20287;-58
2022/07/05 06:01:14;;;;;;;8.60;4.57;;;;;;;20.71;73.56;100233.38;5068285;28;20897;-59
2022/07/05 06:03:45;;;;;;;8.00;4.93;;;;;;;20.76;72.29;100231.31;5068762;28;20290;-59
2022/07/05 06:06:16;;;;;;;7.67;4.80;;;;;;;20.70;72.17;100231.69;5068219;28;20382;-58
2022/07/05 06:08:46;;;;;;;18.43;5.30;;;;;;;20.67;72.18;100232.72;5068387;28;20287;-58
2022/07/05 06:11:17;;;;;;;8.03;4.97;;;;;;;20.56;72.90;100235.97;5067048;28;20307;-58
2022/07/05 06:13:47;;;;;;;10.30;5.33;;;;;;;20.58;72.39;100238.56;5068128;28;20291;-59
2022/07/05 06:16:20;;;;;;;13.03;5.00;;;;;;;20.52;73.06;100238.84;5067643;28;20295;-59
2022/07/05 06:19:08;;;;;;;9.13;5.03;;;;;;;20.63;71.75;100247.94;5067558;28;20594;-59
2022/07/05 06:21:39;;;;;;;10.48;4.60;;;;;;;20.52;72.09;100242.38;5067181;28;20587;-59
2022/07/05 06:24:10;;;;;;;8.30;4.67;;;;;;;20.46;72.66;100235.63;5067975;28;20563;-58
2022/07/05 06:26:40;;;;;;;10.10;4.77;;;;;;;20.53;72.80;100241.44;5068220;28;20588;-59
2022/07/05 06:29:11;;;;;;;8.97;5.00;;;;;;;20.50;72.46;100246.94;5067821;28;20556;-58
2022/07/05 06:31:43;;;;;;;6.90;4.33;;;;;;;20.58;73.47;100243.84;5068273;28;20287;-59
2022/07/05 06:34:13;;;;;;;6.97;4.00;;;;;;;20.67;72.65;100238.88;5067806;28;20349;-58
2022/07/05 06:36:45;;;;;;;8.23;4.00;;;;;;;20.60;71.58;100242.81;5068178;28;20301;-59
2022/07/05 06:39:16;;;;;;;11.30;4.50;;;;;;;20.66;72.35;100245.09;5067994;28;20290;-59
2022/07/05 06:41:46;;;;;;;7.13;4.60;;;;;;;20.56;71.01;100235.97;5066870;28;20549;-59
2022/07/05 06:44:17;;;;;;;7.93;4.60;;;;;;;20.27;71.58;100237.66;5066651;28;20317;-60
2022/07/05 06:47:07;;;;;;;7.17;4.77;;;;;;;20.05;71.38;100235.34;5066286;28;20318;-60
2022/07/05 06:49:38;;;;;;;6.87;4.90;;;;;;;19.99;72.05;100240.97;5067947;28;20575;-59
2022/07/05 06:52:08;;;;;;;11.67;5.03;;;;;;;19.92;71.00;100234.28;5067719;28;20298;-60
2022/07/05 06:54:39;;;;;;;11.03;4.70;;;;;;;19.82;71.75;100249.88;5066538;28;20299;-61
2022/07/05 06:57:21;;;;;;;10.93;4.93;;;;;;;19.75;72.24;100238.75;5067395;28;20322;-59
2022/07/05 07:00:01;;;;;;;7.47;5.17;;;;;;;19.75;72.93;100244.06;5066408;28;20060;-60
2022/07/05 07:02:35;;;;;;;9.27;4.90;;;;;;;19.74;73.47;100242.31;5066767;28;20272;-60
2022/07/05 07:05:07;;;;;;;11.20;4.83;;;;;;;19.71;72.69;100245.16;5066473;28;20283;-60
2022/07/05 07:10:28;;;;;;;7.87;5.20;;;;;;;19.45;72.79;100240.41;5065694;28;20291;-60
2022/07/05 07:12:59;;;;;;;11.03;5.10;;;;;;;19.39;72.77;100242.44;5067467;28;20271;-60
2022/07/05 07:15:33;;;;;;;7.70;5.13;;;;;;;19.15;72.98;100209.28;5067407;28;20575;-60
2022/07/05 07:18:06;;;;;;;11.13;5.17;;;;;;;19.30;73.84;100237.63;5067214;28;20286;-60
2022/07/05 07:20:36;;;;;;;11.30;4.70;;;;;;;19.37;72.74;100233.72;5067011;28;20510;-59
2022/07/05 07:23:07;;;;;;;10.30;5.07;;;;;;;19.36;73.64;100231.13;5067067;28;20278;-59
2022/07/05 07:25:38;;;;;;;11.30;5.20;;;;;;;19.45;73.56;100246.53;5067006;28;20317;-60
2022/07/05 07:28:08;;;;;;;9.73;5.30;;;;;;;19.49;73.01;100249.88;5067001;28;20311;-59
2022/07/05 07:30:39;;;;;;;12.40;4.83;;;;;;;19.42;73.21;100240.53;5067302;28;20358;-59
2022/07/05 07:33:11;;;;;;;6.33;4.00;;;;;;;19.35;72.36;100246.19;5066925;28;20298;-60
2022/07/05 07:36:02;;;;;;;7.53;4.57;;;;;;;19.07;71.75;100248.53;5067029;28;20590;-59
2022/07/05 07:38:33;;;;;;;5.60;4.07;;;;;;;18.91;72.46;100246.69;5066757;28;20291;-59
2022/07/05 07:41:03;;;;;;;5.73;4.50;;;;;;;18.90;72.87;100246.78;5066254;28;20283;-59
2022/07/05 07:43:34;;;;;;;5.87;4.47;;;;;;;18.86;72.48;100243.41;5066377;28;20276;-59
2022/07/05 07:46:04;;;;;;;5.63;4.53;;;;;;;18.79;73.75;100242.00;5066956;28;20479;-60
2022/07/05 07:48:37;;;;;;;10.87;4.43;;;;;;;18.80;73.43;100241.09;5066244;28;20492;-59
2022/07/05 07:51:07;;;;;;;17.87;4.90;;;;;;;18.60;73.73;100235.94;5066027;28;20280;-58
2022/07/05 07:53:38;;;;;;;5.27;4.40;;;;;;;18.66;74.03;100235.59;5066174;28;20478;-59
2022/07/05 07:56:09;;;;;;;8.63;4.70;;;;;;;18.54;72.94;100237.91;5066633;28;20354;-59
2022/07/05 07:58:40;;;;;;;6.43;3.90;;;;;;;18.49;73.40;100245.22;5066127;28;20284;-59
2022/07/05 08:01:11;;;;;;;6.20;3.90;;;;;;;18.56;73.78;100245.78;5065915;28;20287;-59
2022/07/05 08:03:44;;;;;;;7.40;3.97;;;;;;;18.54;73.19;100247.66;5066324;28;20396;-59
2022/07/05 08:06:15;;;;;;;5.47;4.07;;;;;;;18.61;73.76;100250.84;5066727;28;20439;-59
2022/07/05 08:08:47;;;;;;;8.00;4.33;;;;;;;18.69;74.18;100251.31;5064075;28;20530;-59
2022/07/05 08:11:17;;;;;;;13.17;4.60;;;;;;;18.64;73.46;100250.69;5066026;28;20334;-59
2022/07/05 08:13:48;;;;;;;11.93;4.27;;;;;;;18.53;73.71;100252.09;5065849;28;20288;-57
2022/07/05 08:16:19;;;;;;;11.20;4.50;;;;;;;18.54;73.68;100251.16;5065286;28;20358;-57
2022/07/05 08:21:38;;;;;;;;;;;;;;;18.43;73.51;100258.78;5066410;28;20294;-59
2022/07/05 08:24:11;;;;;;;8.03;4.10;;;;;;;18.36;73.41;100257.34;5066175;28;19954;-59
2022/07/05 08:26:42;;;;;;;7.27;4.00;;;;;;;18.13;73.28;100254.97;5065331;28;20289;-59
2022/07/05 08:29:14;;;;;;;11.70;4.57;;;;;;;18.07;74.17;100259.63;5066012;28;20289;-58
2022/07/05 08:31:53;;;;;;;7.57;3.60;;;;;;;17.98;74.56;100260.06;5066087;28;20275;-58
2022/07/05 08:34:25;;;;;;;10.37;4.27;;;;;;;17.98;74.72;100260.06;5065661;28;20283;-58
2022/07/05 08:36:56;;;;;;;6.03;3.90;;;;;;;17.98;75.23;100265.34;5065312;28;20307;-58
2022/07/05 08:39:26;;;;;;;4.53;3.87;;;;;;;17.87;74.79;100267.63;5065790;28;20268;-58
2022/07/05 08:41:58;;;;;;;13.77;4.10;;;;;;;17.83;75.10;100276.63;5065281;28;20294;-58
2022/07/05 08:44:30;;;;;;;10.77;4.30;;;;;;;17.83;75.06;100281.91;5065377;28;20279;-59
2022/07/05 08:47:04;;;;;;;11.77;8.43;;;;;;;17.64;74.99;100292.44;5065509;28;20295;-58
2022/07/05 08:49:40;;;;;;;6.23;4.40;;;;;;;17.54;75.70;100291.97;5065665;28;20294;-58
2022/07/05 08:52:14;;;;;;;7.83;4.00;;;;;;;17.46;75.76;100283.53;5065529;28;20275;-59
2022/07/05 08:54:45;;;;;;;14.70;4.40;;;;;;;17.42;75.84;100293.41;5065524;28;20434;-59
2022/07/05 08:57:17;;;;;;;7.00;3.83;;;;;;;17.38;75.67;100285.69;5065298;28;20276;-59
2022/07/05 08:59:47;;;;;;;10.30;4.27;;;;;;;17.34;76.52;100289.38;5065036;28;20279;-59
2022/07/05 09:02:19;;;;;;;8.80;4.30;;;;;;;17.38;76.61;100294.47;5065353;28;20330;-59
2022/07/05 09:04:53;;;;;;;5.70;4.30;;;;;;;17.38;76.24;100301.53;5064955;28;20299;-59
2022/07/05 09:07:28;;;;;;;9.93;4.70;;;;;;;17.34;76.08;100305.22;5063742;28;20595;-59
2022/07/05 09:10:01;;;;;;;9.50;4.23;;;;;;;17.30;75.80;100298.34;5064560;28;20280;-59
2022/07/05 09:12:32;;;;;;;5.00;3.23;;;;;;;17.12;74.56;100300.84;5065200;28;20361;-60
2022/07/05 09:15:02;;;;;;;5.87;3.47;;;;;;;16.96;75.10;100300.66;5065442;28;20283;-59
2022/07/05 09:17:33;;;;;;;7.23;3.70;;;;;;;16.98;75.36;100298.81;5065551;28;20285;-58
2022/07/05 09:20:12;;;;;;;5.73;3.40;;;;;;;17.03;74.79;100306.53;5065500;28;20293;-59
2022/07/05 09:22:52;;;;;;;12.40;3.97;;;;;;;17.00;74.76;100306.69;5065287;28;20631;-59
2022/07/05 09:25:26;;;;;;;6.27;3.67;;;;;;;16.96;75.23;100299.81;5064788;28;20222;-59
2022/07/05 09:27:58;;;;;;;8.13;3.70;;;;;;;16.97;75.32;100307.66;5065088;28;20507;-59
2022/07/05 09:30:32;;;;;;;11.30;4.37;;;;;;;17.01;75.43;100318.94;5065162;28;20271;-59
2022/07/05 09:33:06;;;;;;;13.30;4.40;;;;;;;17.08;75.84;100323.03;5065505;28;20275;-59
2022/07/05 09:35:39;;;;;;;7.47;3.43;;;;;;;17.04;75.40;100330.22;5065386;28;20373;-59
2022/07/05 09:38:21;;;;;;;9.73;3.27;;;;;;;16.84;75.74;100321.44;5065218;28;20338;-58
2022/07/05 09:40:53;;;;;;;3.43;2.83;;;;;;;16.66;76.49;100333.56;5065007;28;20283;-59
2022/07/05 09:43:24;;;;;;;5.87;3.40;;;;;;;16.51;76.73;100335.88;5064593;28;20295;-59
2022/07/05 09:46:02;;;;;;;5.90;3.53;;;;;;;16.34;77.00;100333.91;5064887;28;20279;-59
2022/07/05 09:48:34;;;;;;;7.53;3.77;;;;;;;16.14;77.64;100347.00;5064999;28;20299;-58
2022/07/05 09:51:15;;;;;;;7.43;3.83;;;;;;;15.96;78.14;100344.16;5063166;28;20302;-59
2022/07/05 09:54:06;;;;;;;13.03;4.70;;;;;;;15.81;79.02;100349.97;5063819;28;20291;-59
2022/07/05 09:56:46;;;;;;;11.40;4.40;;;;;;;15.69;79.52;100345.13;5065218;28;20306;-59
2022/07/05 09:59:19;;;;;;;7.60;4.77;;;;;;;15.48;79.91;100342.34;5064670;28;20287;-59
2022/07/05 10:01:51;;;;;;;8.03;5.37;;;;;;;15.33;80.51;100358.69;5064155;28;20310;-59
2022/07/05 10:04:22;;;;;;;9.57;6.70;;;;;;;15.12;81.20;100356.78;5064854;28;20326;-58
2022/07/05 10:06:54;;;;;;;9.03;5.43;;;;;;;14.85;82.24;100356.75;5064768;28;20287;-58
2022/07/05 10:09:25;;;;;;;14.13;6.57;;;;;;;14.50;83.23;100357.84;5064867;28;20315;-59
2022/07/05 10:12:12;;;;;;;11.20;6.03;;;;;;;14.24;84.67;100365.63;5064856;28;20279;-58
2022/07/05 10:14:43;;;;;;;46.50;15.80;;;;;;;14.00;85.41;100371.59;5064506;28;20333;-59
2022/07/05 10:17:14;;;;;;;13.97;7.70;;;;;;;13.84;86.55;100365.09;5064950;28;20283;-59
2022/07/05 10:19:49;;;;;;;55.90;16.13;;;;;;;13.71;87.30;100372.44;5064935;28;20283;-58
2022/07/05 10:22:21;;;;;;;118.13;36.13;;;;;;;13.69;88.06;100376.88;5066917;28;20347;-59
2022/07/05 10:24:53;;;;;;;130.27;64.57;;;;;;;13.65;88.08;100381.31;5068383;28;20364;-59
2022/07/05 10:27:26;;;;;;;39.13;18.83;;;;;;;13.59;88.38;100381.50;5068113;28;20298;-59
2022/07/05 10:29:58;;;;;;;13.87;8.97;;;;;;;13.52;88.67;100379.94;5067309;28;20318;-59
2022/07/05 10:32:30;;;;;;;22.90;11.43;;;;;;;13.36;88.99;100375.09;5068055;28;20291;-59
2022/07/05 10:35:02;;;;;;;14.37;8.67;;;;;;;13.29;89.76;100384.03;5067582;28;20503;-59
2022/07/05 10:37:36;;;;;;;16.67;9.97;;;;;;;13.24;90.54;100380.63;5067174;28;20337;-60
2022/07/05 10:40:08;;;;;;;19.80;11.37;;;;;;;13.26;90.81;100389.31;5068194;28;20288;-59
2022/07/05 10:42:41;;;;;;;11.63;7.10;;;;;;;13.13;90.76;100387.94;5066085;28;20283;-59
2022/07/05 10:45:27;;;;;;;10.63;6.87;;;;;;;13.05;91.14;100395.09;5066325;28;20361;-60
2022/07/05 10:48:19;;;;;;;17.70;8.73;;;;;;;13.03;91.95;100402.13;5061798;28;20499;-59
2022/07/05 10:50:52;;;;;;;9.00;6.83;;;;;;;12.59;91.84;100344.63;5067927;28;20297;-60
2022/07/05 10:53:26;;;;;;;12.50;8.20;;;;;;;12.85;92.35;100409.53;5067780;28;20279;-59
2022/07/05 10:55:58;;;;;;;8.27;7.10;;;;;;;12.86;92.65;100413.06;5068031;28;20048;-59
2022/07/05 10:58:36;;;;;;;13.80;8.82;;;;;;;12.83;92.96;100416.63;5068072;28;20456;-60
2022/07/05 11:01:35;;;;;;;13.55;9.50;;;;;;;12.77;93.00;100415.88;5067335;28;20119;-59
2022/07/05 11:04:20;;;;;;;18.98;9.35;;;;;;;12.66;93.24;100418.75;5066513;28;20063;-59
2022/07/05 11:06:51;;;;;;;17.45;9.30;;;;;;;12.60;93.44;100424.97;5066198;28;20083;-60
2022/07/05 11:09:23;;;;;;;45.75;10.85;;;;;;;12.55;94.20;100432.06;5065963;28;20324;-60
2022/07/05 11:12:08;;;;;;;54.30;10.68;;;;;;;12.49;94.30;100426.97;5066674;28;20128;-59
2022/07/05 11:15:08;;;;;;;25.08;11.10;;;;;;;12.43;94.83;100435.84;5066591;28;20036;-59
2022/07/05 11:17:39;;;;;;;171.82;13.25;;;;;;;12.36;95.05;100429.00;5065655;28;20045;-60
2022/07/05 11:20:31;;;;;;;45.95;11.00;;;;;;;12.27;95.60;100426.56;5064192;28;20483;-59
2022/07/05 11:23:08;;;;;;;76.07;11.02;;;;;;;11.89;95.78;100373.22;5064742;28;20282;-60
2022/07/05 11:25:44;;;;;;;136.02;13.38;;;;;;;12.22;95.94;100437.13;5065926;28;20044;-59
2022/07/05 11:28:26;;;;;;;51.47;11.25;;;;;;;12.07;96.75;100398.16;5066577;28;20217;-59
2022/07/05 11:31:01;;;;;;;54.75;11.93;;;;;;;12.30;97.14;100434.34;5065632;28;20288;-60
2022/07/05 11:33:54;;;;;;;17.48;10.23;;;;;;;12.37;97.47;100432.47;5066592;28;20119;-59
2022/07/05 11:36:27;;;;;;;85.28;10.68;;;;;;;12.40;97.48;100433.25;5066658;28;20355;-60
2022/07/05 11:39:20;;;;;;;77.20;11.45;;;;;;;12.32;97.21;100429.09;5066820;28;20110;-60
2022/07/05 11:41:52;;;;;;;123.35;12.65;;;;;;;12.37;97.04;100427.25;5065392;28;20049;-60
2022/07/05 11:44:25;;;;;;;95.20;12.10;;;;;;;12.30;97.15;100421.25;5066341;28;20052;-60
2022/07/05 11:47:16;;;;;;;61.35;11.63;;;;;;;12.29;97.40;100424.78;5066481;28;20044;-60
2022/07/05 11:49:56;;;;;;;111.55;12.38;;;;;;;12.15;97.02;100416.34;5066938;28;20056;-60
2022/07/05 11:52:28;;;;;;;127.00;11.85;;;;;;;12.18;97.17;100432.00;5066536;28;20060;-60
2022/07/05 11:54:59;;;;;;;98.45;10.65;;;;;;;12.18;97.75;100427.63;5066355;28;20053;-60
2022/07/05 11:57:31;;;;;;;146.25;12.40;;;;;;;12.25;97.93;100434.44;5066384;28;20041;-60
2022/07/05 12:24:36;;;;;;;52.47;10.27;;;;;;;12.43;96.80;100422.75;5154717;27;20467;-60
2022/07/05 12:27:11;;;;;;;69.28;8.73;;;;;;;12.48;96.79;100428.75;5133163;27;20051;-61